createdAt,value
2022-09-13T00:01:34.857Z,4.03
2022-09-13T00:06:28.477Z,3.92
2022-09-13T00:11:23.977Z,4.03
2022-09-13T00:16:21.193Z,4.82
2022-09-13T00:21:17.392Z,3.92
2022-09-13T00:26:12.362Z,4.05
2022-09-13T00:31:07.361Z,3.80
2022-09-13T00:36:11.494Z,3.83
2022-09-13T00:41:05.175Z,4.00
2022-09-13T00:45:58.281Z,4.20
2022-09-13T00:50:56.162Z,4.07
2022-09-13T00:55:55.117Z,4.28
2022-09-13T01:00:49.379Z,4.10
2022-09-13T01:05:45.546Z,4.00
2022-09-13T01:10:40.400Z,4.13
2022-09-13T01:15:34.808Z,4.15
2022-09-13T01:20:45.658Z,3.80
2022-09-13T01:26:03.827Z,3.97
2022-09-13T01:31:06.719Z,3.92
2022-09-13T01:36:13.684Z,4.28
2022-09-13T01:41:19.325Z,4.20
2022-09-13T01:46:20.081Z,3.85
2022-09-13T01:51:23.425Z,3.58
2022-09-13T01:56:24.503Z,4.35
2022-09-13T02:01:23.348Z,3.90
2022-09-13T02:06:22.059Z,3.85
2022-09-13T02:11:17.448Z,4.13
2022-09-13T02:16:16.597Z,4.05
2022-09-13T02:21:15.432Z,4.53
2022-09-13T02:26:14.382Z,4.40
2022-09-13T02:31:11.596Z,4.05
2022-09-13T02:36:14.358Z,4.30
2022-09-13T02:41:15.133Z,4.70
2022-09-13T02:46:20.902Z,4.70
2022-09-13T02:51:23.356Z,4.53
2022-09-13T02:56:25.485Z,4.78
2022-09-13T03:01:18.950Z,4.78
2022-09-13T03:06:12.302Z,5.32
2022-09-13T03:11:18.757Z,5.25
2022-09-13T03:16:26.029Z,5.18
2022-09-13T03:21:36.226Z,5.35
2022-09-13T03:26:43.128Z,5.25
2022-09-13T03:31:42.317Z,4.70
2022-09-13T03:36:38.610Z,6.05
2022-09-13T03:41:38.063Z,5.10
2022-09-13T03:46:35.210Z,5.90
2022-09-13T03:51:28.243Z,5.28
2022-09-13T03:56:22.030Z,5.20
2022-09-13T04:01:20.578Z,4.80
2022-09-13T04:06:13.644Z,6.10
2022-09-13T04:11:07.135Z,26.02
2022-09-13T04:16:03.263Z,16.83
2022-09-13T04:21:02.017Z,14.75
2022-09-13T04:25:57.182Z,11.25
2022-09-13T04:31:20.292Z,5.93
2022-09-13T04:36:14.995Z,5.07
2022-09-13T04:41:10.868Z,4.68
2022-09-13T04:46:03.886Z,5.03
2022-09-13T04:51:03.053Z,4.60
2022-09-13T04:56:01.962Z,4.50
2022-09-13T05:00:56.926Z,4.50
2022-09-13T05:05:50.050Z,4.53
2022-09-13T05:10:43.083Z,4.20
2022-09-13T05:15:37.529Z,4.65
2022-09-13T05:20:30.782Z,4.50
2022-09-13T05:25:26.071Z,4.57
2022-09-13T05:30:19.530Z,4.30
2022-09-13T05:35:14.867Z,5.20
2022-09-13T05:40:12.833Z,5.40
2022-09-13T05:45:07.289Z,5.15
2022-09-13T05:50:27.473Z,5.47
2022-09-13T05:55:16.217Z,4.85
2022-09-13T06:00:10.580Z,5.22
2022-09-13T06:05:06.989Z,4.80
2022-09-13T06:10:00.109Z,4.85
2022-09-13T06:14:54.421Z,5.65
2022-09-13T06:19:47.497Z,5.70
2022-09-13T06:24:40.806Z,5.70
2022-09-13T06:29:43.911Z,6.20
2022-09-13T06:34:38.392Z,6.18
2022-09-13T06:39:34.401Z,6.93
2022-09-13T06:44:27.601Z,6.57
2022-09-13T06:49:20.785Z,7.22
2022-09-13T06:54:16.247Z,7.20
2022-09-13T06:59:11.446Z,7.07
2022-09-13T07:04:07.266Z,7.30
2022-09-13T07:09:02.563Z,6.90
2022-09-13T07:13:59.088Z,6.78
2022-09-13T07:18:53.824Z,7.10
2022-09-13T07:23:47.002Z,6.50
2022-09-13T07:28:41.967Z,6.35
2022-09-13T07:33:37.108Z,6.88
2022-09-13T07:38:32.874Z,6.55
2022-09-13T07:43:26.435Z,6.40
2022-09-13T07:48:19.628Z,6.65
2022-09-13T07:53:14.230Z,5.75
2022-09-13T07:58:07.518Z,5.45
2022-09-13T08:03:01.612Z,5.30
2022-09-13T08:07:54.834Z,4.78
2022-09-13T08:12:49.794Z,5.53
2022-09-13T08:17:43.045Z,5.05
2022-09-13T08:22:36.248Z,6.30
2022-09-13T08:27:29.885Z,5.93
2022-09-13T08:32:24.540Z,5.63
2022-09-13T08:37:17.989Z,5.47
2022-09-13T08:42:41.146Z,4.20
2022-09-13T08:47:48.133Z,4.38
2022-09-13T08:53:11.992Z,4.75
2022-09-13T08:58:18.494Z,4.03
2022-09-13T09:03:26.000Z,3.70
2022-09-13T09:08:31.429Z,4.50
2022-09-13T09:13:30.908Z,3.90
2022-09-13T09:23:22.738Z,4.40
2022-09-13T09:28:18.163Z,3.90
2022-09-13T09:33:27.031Z,4.35
2022-09-13T09:38:37.233Z,2.85
2022-09-13T09:43:35.680Z,7.00
2022-09-13T09:48:38.050Z,2.80
2022-09-13T09:53:37.280Z,2.67
2022-09-13T10:03:35.928Z,2.60
2022-09-13T10:08:32.352Z,2.40
2022-09-13T10:13:31.558Z,2.50
2022-09-13T10:18:43.606Z,2.40
2022-09-13T10:23:39.852Z,2.20
2022-09-13T10:28:39.758Z,2.22
2022-09-13T10:33:36.913Z,2.30
2022-09-13T10:38:35.743Z,2.67
2022-09-13T10:43:36.647Z,2.17
2022-09-13T10:48:33.069Z,2.38
2022-09-13T10:53:36.176Z,2.10
2022-09-13T10:58:32.480Z,2.40
2022-09-13T11:03:53.114Z,2.17
2022-09-13T11:08:54.860Z,2.65
2022-09-13T11:14:06.158Z,2.10
2022-09-13T11:19:30.062Z,1.80
2022-09-13T11:24:41.544Z,1.90
2022-09-13T11:29:55.711Z,1.70
2022-09-13T11:35:07.517Z,1.70
2022-09-13T11:40:14.351Z,1.88
2022-09-13T11:45:22.943Z,2.00
2022-09-13T11:50:33.693Z,1.73
2022-09-13T11:55:34.171Z,1.92
2022-09-13T12:00:33.276Z,2.15
2022-09-13T12:05:34.128Z,2.50
2022-09-13T12:10:31.765Z,2.15
2022-09-13T12:15:37.079Z,2.00
2022-09-13T12:20:36.792Z,2.05
2022-09-13T12:25:40.512Z,2.40
2022-09-13T12:30:43.567Z,1.90
2022-09-13T12:35:46.279Z,1.90
2022-09-13T12:40:58.396Z,2.08
2022-09-13T12:46:16.098Z,1.80
2022-09-13T12:51:32.167Z,1.60
2022-09-13T12:56:46.875Z,2.33
2022-09-13T13:01:46.522Z,2.70
2022-09-13T13:06:50.277Z,2.33
2022-09-13T13:11:47.553Z,2.40
2022-09-13T13:16:41.631Z,2.28
2022-09-13T13:21:40.155Z,1.98
2022-09-13T13:26:48.553Z,2.08
2022-09-13T13:31:47.339Z,2.00
2022-09-13T13:36:47.957Z,1.90
2022-09-13T13:41:51.987Z,2.10
2022-09-13T13:46:47.834Z,2.03
2022-09-13T13:51:43.991Z,2.08
2022-09-13T13:56:49.553Z,2.53
2022-09-13T14:01:50.096Z,2.00
2022-09-13T14:06:53.747Z,2.00
2022-09-13T14:12:11.168Z,2.75
2022-09-13T14:17:48.000Z,2.33
2022-09-13T14:22:41.285Z,2.30
2022-09-13T14:27:37.776Z,3.40
2022-09-13T14:32:41.946Z,2.60
2022-09-13T14:37:40.463Z,2.33
2022-09-13T14:42:45.097Z,2.07
2022-09-13T14:47:57.706Z,2.25
2022-09-13T14:52:58.202Z,2.58
2022-09-13T14:58:04.427Z,2.10
2022-09-13T15:03:03.602Z,2.22
2022-09-13T15:13:12.360Z,2.35
2022-09-13T15:18:12.340Z,2.40
2022-09-13T15:23:19.033Z,2.28
2022-09-13T15:28:23.108Z,2.25
2022-09-13T15:33:23.909Z,2.20
2022-09-13T15:38:24.071Z,2.10
2022-09-13T15:43:17.218Z,2.13
2022-09-13T15:48:23.877Z,2.20
2022-09-13T15:53:17.054Z,2.28
2022-09-13T15:58:12.038Z,2.25
2022-09-13T16:03:05.388Z,2.80
2022-09-13T16:08:01.950Z,2.20
2022-09-13T16:12:55.706Z,2.35
2022-09-13T16:17:51.679Z,2.33
2022-09-13T16:22:58.746Z,2.50
2022-09-13T16:27:57.034Z,2.50
2022-09-13T16:32:50.616Z,2.78
2022-09-13T16:37:51.611Z,2.50
2022-09-13T16:43:21.357Z,2.85
2022-09-13T17:01:22.529Z,3.72
2022-09-13T17:06:41.285Z,2.97
2022-09-13T17:12:07.890Z,4.25
2022-09-13T17:17:11.478Z,4.32
2022-09-13T17:22:08.243Z,3.50
2022-09-13T17:27:02.205Z,3.65
2022-09-13T17:31:57.534Z,3.70
2022-09-13T17:36:52.857Z,4.00
2022-09-13T17:41:48.669Z,4.05
2022-09-13T17:46:44.550Z,4.20
2022-09-13T17:51:38.089Z,3.60
2022-09-13T17:56:38.535Z,3.28
2022-09-13T18:01:33.708Z,3.28
2022-09-13T18:06:27.214Z,3.38
2022-09-13T18:11:22.492Z,3.13
2022-09-13T18:16:21.175Z,3.33
2022-09-13T18:21:18.723Z,3.80
2022-09-13T18:26:13.512Z,4.32
2022-09-13T18:31:09.317Z,3.33
2022-09-13T18:36:04.142Z,3.00
2022-09-13T18:41:15.488Z,3.10
2022-09-13T18:46:12.593Z,2.83
2022-09-13T18:51:08.925Z,2.80
2022-09-13T18:56:05.434Z,3.63
2022-09-13T19:01:07.681Z,3.35
2022-09-13T19:06:18.261Z,3.97
2022-09-13T19:11:29.068Z,3.47
2022-09-13T19:16:39.340Z,3.10
2022-09-13T19:21:35.574Z,3.30
2022-09-13T19:26:31.418Z,3.05
2022-09-13T19:31:28.249Z,3.20
2022-09-13T19:36:27.321Z,2.55
2022-09-13T19:41:25.283Z,2.92
2022-09-13T19:46:26.927Z,2.53
2022-09-13T19:51:23.383Z,2.40
2022-09-13T19:56:23.667Z,2.20
2022-09-13T20:01:20.214Z,2.03
2022-09-13T20:06:14.458Z,2.25
2022-09-13T20:11:14.239Z,2.20
2022-09-13T20:16:12.173Z,2.20
2022-09-13T20:21:12.358Z,2.20
2022-09-13T20:26:14.649Z,2.40
2022-09-13T20:31:08.806Z,2.30
2022-09-13T20:36:06.268Z,2.30
2022-09-13T20:41:05.334Z,2.50
2022-09-13T20:46:22.223Z,2.20
2022-09-13T20:51:44.248Z,2.60
2022-09-13T20:56:48.950Z,2.50
2022-09-13T21:01:53.442Z,2.70
2022-09-13T21:07:00.911Z,2.50
2022-09-13T21:11:56.182Z,2.92
2022-09-13T21:16:52.349Z,3.20
2022-09-13T21:21:50.005Z,3.27
2022-09-13T21:26:47.560Z,2.70
2022-09-13T21:31:47.791Z,2.78
2022-09-13T21:36:47.272Z,2.70
2022-09-13T21:41:42.484Z,2.65
2022-09-13T21:46:38.397Z,2.58
2022-09-13T21:51:36.428Z,2.92
2022-09-13T21:56:46.443Z,2.30
2022-09-13T22:01:51.104Z,2.63
2022-09-13T22:06:57.940Z,2.78
2022-09-13T22:12:01.069Z,2.60
2022-09-13T22:17:00.868Z,2.75
2022-09-13T22:22:04.419Z,2.83
2022-09-13T22:26:59.708Z,2.72
2022-09-13T22:31:53.295Z,2.80
2022-09-13T22:36:47.063Z,2.88
2022-09-13T22:41:40.718Z,3.20
2022-09-13T22:46:38.359Z,3.10
2022-09-13T22:51:32.076Z,3.22
2022-09-13T22:56:27.264Z,3.03
2022-09-13T23:01:21.423Z,2.97
2022-09-13T23:06:18.930Z,3.35
2022-09-13T23:11:13.576Z,3.20
2022-09-13T23:16:09.228Z,3.00
2022-09-13T23:21:02.530Z,2.45
2022-09-13T23:26:03.746Z,3.22
2022-09-13T23:30:56.918Z,3.00
2022-09-13T23:35:51.031Z,2.60
2022-09-13T23:40:44.156Z,2.90
2022-09-13T23:45:38.797Z,2.95
2022-09-13T23:50:32.092Z,3.03
2022-09-13T23:55:25.291Z,3.17
